»·PEaware :: N221XG KAPA-KASE

N221XG :: KAPA-KASE

FLIGHT INFORMATION

Flight Status: Arrived
Operator: Privately registered:
United States
More flights under this callsign
Pilot: Ryan L. (9775)
Aircraft: PILATUS PC-12 EAGLE
(PC12)
More flights by this aircraft type
Origin: KAPA Centennial
United States
Destination: KASE Aspen-Pitkin Co/Sardy
United States
More flights between these airports :: More routes between these airports
Route: ROCKI3 DBL
File this flight plan on PilotEdge
Remarks:
Altitude:
(Current/Filed)
16,000ft
Speed:
(Current/Filed)
260kts
Departed: 03-Jan-18 07:17 PM
Arrived: 03-Jan-18 07:52 PM
Distance/Time
Traveled:
96nm/0:35
Distance/Time
To Go:
Arrived

Flight Plot

Page will automatically refresh every two minutes.

Flight plan parsing failed; only flown route is shown


Map Options




Map Legend


Flown Route
Filed Route
Departure Airport
Arrival Airport
Navaid (VOR, NDB)
Fix

Horizontal Profiles

Position Reports

Time Latitude Longitude Heading Altitude Ground
Speed
03-Jan-18 19:04 39.578675 -104.848768 89 5886ft 0kts
03-Jan-18 19:05 39.578675 -104.848768 89 5886ft 0kts
03-Jan-18 19:06 39.578675 -104.848768 89 5886ft 0kts
03-Jan-18 19:07 39.578675 -104.848768 89 5886ft 0kts
03-Jan-18 19:08 39.578675 -104.848768 90 5886ft 0kts
03-Jan-18 19:09 39.578675 -104.848768 90 5886ft 0kts
03-Jan-18 19:10 39.578675 -104.848768 90 5886ft 0kts
03-Jan-18 19:11 39.578675 -104.848768 90 5886ft 0kts
03-Jan-18 19:12 39.578675 -104.848768 90 5886ft 0kts
03-Jan-18 19:13 39.578675 -104.848768 90 5886ft 0kts
03-Jan-18 19:14 39.578675 -104.848768 90 5886ft 0kts
03-Jan-18 19:15 39.578675 -104.848768 90 5886ft 0kts
03-Jan-18 19:16 39.578675 -104.848768 90 5886ft 0kts
03-Jan-18 19:17 39.578675 -104.848768 90 5886ft 0kts
03-Jan-18 19:18 39.579637 -104.849878 359 5886ft 9kts
03-Jan-18 19:19 39.583911 -104.850094 345 5886ft 18kts
03-Jan-18 19:20 39.584128 -104.850229 309 5886ft 0kts
03-Jan-18 19:21 39.584128 -104.850229 309 5886ft 0kts
03-Jan-18 19:22 39.584128 -104.850229 309 5886ft 0kts
03-Jan-18 19:23 39.578430 -104.851202 182 5886ft 94kts
03-Jan-18 19:24 39.543010 -104.846469 178 7374ft 151kts
03-Jan-18 19:25 39.492544 -104.839956 178 8033ft 207kts
03-Jan-18 19:26 39.438934 -104.841635 221 9847ft 190kts
03-Jan-18 19:27 39.440412 -104.900025 299 11476ft 185kts
03-Jan-18 19:28 39.462567 -104.957543 299 13334ft 184kts
03-Jan-18 19:29 39.486448 -105.017085 295 14829ft 192kts
03-Jan-18 19:30 39.506786 -105.080824 289 16027ft 205kts
03-Jan-18 19:31 39.524288 -105.157403 283 16092ft 238kts
03-Jan-18 19:32 39.547647 -105.238380 297 16087ft 249kts
03-Jan-18 19:33 39.575939 -105.318639 293 16082ft 248kts
03-Jan-18 19:34 39.604490 -105.399000 293 16082ft 247kts
03-Jan-18 19:35 39.632959 -105.479206 293 16086ft 246kts
03-Jan-18 19:36 39.661303 -105.559272 293 16092ft 246kts
03-Jan-18 19:37 39.689606 -105.639445 293 16117ft 245kts
03-Jan-18 19:38 39.685881 -105.715632 237 16168ft 252kts
03-Jan-18 19:39 39.656913 -105.796010 253 16206ft 247kts
03-Jan-18 19:40 39.637707 -105.881399 257 16232ft 247kts
03-Jan-18 19:41 39.620619 -105.967822 258 16229ft 247kts
03-Jan-18 19:42 39.603978 -106.054123 258 16225ft 247kts
03-Jan-18 19:43 39.587446 -106.140067 258 16220ft 248kts
03-Jan-18 19:44 39.570787 -106.226455 258 16214ft 248kts
03-Jan-18 19:45 39.554103 -106.312605 258 16210ft 248kts
03-Jan-18 19:46 39.537287 -106.399048 258 16224ft 247kts
03-Jan-18 19:47 39.520473 -106.485101 258 16243ft 246kts
03-Jan-18 19:48 39.503609 -106.571042 258 16257ft 246kts
03-Jan-18 19:49 39.487323 -106.653596 257 16097ft 252kts
03-Jan-18 19:50 39.470103 -106.739204 257 14902ft 259kts
03-Jan-18 19:51 39.452326 -106.828360 256 14162ft 241kts
03-Jan-18 19:52 39.425465 -106.891704 200 13933ft 203kts
03-Jan-18 19:53 39.366214 -106.890276 181 12615ft 209kts
03-Jan-18 19:54 39.318116 -106.893510 188 11306ft 144kts
03-Jan-18 19:55 39.283401 -106.895521 175 9056ft 116kts
03-Jan-18 19:56 39.253718 -106.883368 167 8375ft 110kts
03-Jan-18 19:57 39.227028 -106.870782 159 7822ft 74kts
03-Jan-18 19:58 39.223633 -106.867847 344 7822ft 6kts
03-Jan-18 19:59 39.223724 -106.867507 150 7822ft 0kts
03-Jan-18 20:00 39.223724 -106.867507 150 7822ft 0kts
03-Jan-18 20:01 39.223724 -106.867507 150 7822ft 0kts
03-Jan-18 20:02 39.223724 -106.867507 150 7822ft 0kts
03-Jan-18 20:03 39.223724 -106.867507 150 7822ft 0kts
03-Jan-18 20:04 39.223724 -106.867507 150 7822ft 0kts
03-Jan-18 20:05 39.223724 -106.867507 150 7822ft 0kts
03-Jan-18 20:06 39.223724 -106.867507 150 7822ft 0kts
03-Jan-18 20:07 39.223724 -106.867507 150 7822ft 0kts
03-Jan-18 20:08 39.223724 -106.867507 150 7822ft 0kts
03-Jan-18 20:09 39.223724 -106.867507 150 7822ft 0kts
03-Jan-18 20:10 39.223724 -106.867507 150 7822ft 0kts
03-Jan-18 20:11 39.223724 -106.867507 150 7822ft 0kts
03-Jan-18 20:12 39.223724 -106.867507 150 7822ft 0kts

Navigation Log

Ident Type
Flight plan parsing failed, navigation log unavailable